createdAt,value
2019-01-26T00:01:56.974Z,99997.33
2019-01-26T00:04:26.356Z,100001.66
2019-01-26T00:06:55.841Z,100003.63
2019-01-26T00:09:25.201Z,99992.89
2019-01-26T00:11:54.661Z,99996.43
2019-01-26T00:14:24.022Z,99994.34
2019-01-26T00:16:53.495Z,99993.02
2019-01-26T00:19:22.876Z,99990.02
2019-01-26T00:21:52.274Z,99989.02
2019-01-26T00:24:21.662Z,99999.91
2019-01-26T00:26:51.034Z,99992.30
2019-01-26T00:29:20.444Z,99998.23
2019-01-26T00:31:49.869Z,99985.05
2019-01-26T00:34:19.237Z,99978.92
2019-01-26T00:36:48.652Z,99986.27
2019-01-26T00:39:17.992Z,99983.55
2019-01-26T00:41:47.363Z,99977.19
2019-01-26T00:44:16.752Z,99975.78
2019-01-26T00:46:46.215Z,99977.28
2019-01-26T00:49:15.541Z,99978.44
2019-01-26T00:51:44.903Z,99977.94
2019-01-26T00:54:14.378Z,99981.54
2019-01-26T00:56:43.743Z,99979.59
2019-01-26T00:59:13.153Z,99988.24
2019-01-26T01:01:42.771Z,99983.61
2019-01-26T01:04:12.121Z,99986.14
2019-01-26T01:06:41.542Z,99979.84
2019-01-26T01:09:16.899Z,99972.38
2019-01-26T01:11:46.389Z,99970.31
2019-01-26T01:14:15.786Z,99975.16
2019-01-26T01:16:47.001Z,99965.43
2019-01-26T01:19:20.292Z,99972.19
2019-01-26T01:21:50.008Z,99971.81
2019-01-26T01:24:19.504Z,99960.17
2019-01-26T01:26:48.892Z,99969.78
2019-01-26T01:29:18.363Z,99963.27
2019-01-26T01:31:47.739Z,99956.84
2019-01-26T01:34:18.096Z,99956.84
2019-01-26T01:36:47.580Z,99956.14
2019-01-26T01:39:17.011Z,99950.95
2019-01-26T01:41:46.467Z,99953.48
2019-01-26T01:44:18.967Z,99947.39
2019-01-26T01:46:48.432Z,99946.06
2019-01-26T01:49:17.880Z,99938.99
2019-01-26T01:51:47.307Z,99944.46
2019-01-26T01:54:16.749Z,99941.09
2019-01-26T01:56:48.544Z,99937.94
2019-01-26T01:59:19.686Z,99940.27
2019-01-26T02:01:49.076Z,99943.45
2019-01-26T02:04:18.391Z,99944.91
2019-01-26T02:06:48.064Z,99944.11
2019-01-26T02:09:17.504Z,99939.51
2019-01-26T02:11:47.149Z,99938.39
2019-01-26T02:14:16.499Z,99930.66
2019-01-26T02:16:50.040Z,99934.47
2019-01-26T02:19:17.026Z,99935.91
2019-01-26T02:21:46.378Z,99940.02
2019-01-26T02:24:15.681Z,99934.70
2019-01-26T02:26:45.105Z,99937.77
2019-01-26T02:29:14.339Z,99929.48
2019-01-26T02:31:43.712Z,99932.46
2019-01-26T02:34:13.072Z,99933.57
2019-01-26T02:36:42.491Z,99926.97
2019-01-26T02:39:11.965Z,99934.88
2019-01-26T02:41:41.264Z,99927.98
2019-01-26T02:44:10.623Z,99920.17
2019-01-26T02:46:40.033Z,99928.54
2019-01-26T02:49:11.572Z,99928.16
2019-01-26T02:51:41.065Z,99915.98
2019-01-26T02:54:11.264Z,99916.42
2019-01-26T02:56:40.654Z,99913.05
2019-01-26T02:59:10.061Z,99900.70
2019-01-26T03:01:39.452Z,99912.39
2019-01-26T03:04:08.925Z,99899.59
2019-01-26T03:06:38.348Z,99899.05
2019-01-26T03:09:09.603Z,99900.88
2019-01-26T03:11:38.974Z,99903.59
2019-01-26T03:14:08.308Z,99901.22
2019-01-26T03:16:37.546Z,99907.15
2019-01-26T03:19:06.963Z,99890.69
2019-01-26T03:21:36.301Z,99898.50
2019-01-26T03:24:05.927Z,99894.30
2019-01-26T03:26:35.334Z,99887.98
2019-01-26T03:29:04.754Z,99886.65
2019-01-26T03:31:34.265Z,99894.52
2019-01-26T03:34:03.740Z,99892.36
2019-01-26T03:36:33.118Z,99887.44
2019-01-26T03:39:02.403Z,99878.45
2019-01-26T03:41:31.648Z,99873.75
2019-01-26T03:44:01.033Z,99873.35
2019-01-26T03:46:30.483Z,99869.76
2019-01-26T03:48:59.921Z,99873.25
2019-01-26T03:51:29.169Z,99860.25
2019-01-26T03:53:58.615Z,99860.96
2019-01-26T03:56:29.897Z,99863.63
2019-01-26T03:58:59.376Z,99867.61
2019-01-26T04:01:28.615Z,99862.41
2019-01-26T04:03:58.027Z,99866.28
2019-01-26T04:06:27.353Z,99866.17
2019-01-26T04:08:56.862Z,99861.29
2019-01-26T04:11:26.123Z,99867.50
2019-01-26T04:13:55.414Z,99859.49
2019-01-26T04:16:24.743Z,99856.73
2019-01-26T04:18:54.010Z,99856.62
2019-01-26T04:21:23.462Z,99858.63
2019-01-26T04:23:52.780Z,99852.62
2019-01-26T04:26:22.151Z,99846.17
2019-01-26T04:28:51.577Z,99838.02
2019-01-26T04:31:20.813Z,99844.66
2019-01-26T04:33:50.239Z,99839.55
2019-01-26T04:36:19.481Z,99836.25
2019-01-26T04:38:48.834Z,99842.90
2019-01-26T04:41:18.173Z,99834.58
2019-01-26T04:43:47.516Z,99833.30
2019-01-26T04:46:17.273Z,99832.83
2019-01-26T04:48:46.602Z,99831.92
2019-01-26T04:51:15.846Z,99838.46
2019-01-26T04:53:45.253Z,99823.14
2019-01-26T04:56:14.683Z,99828.75
2019-01-26T04:58:44.025Z,99829.66
2019-01-26T05:01:13.459Z,99828.66
2019-01-26T05:03:42.810Z,99829.47
2019-01-26T05:06:12.082Z,99824.95
2019-01-26T05:08:41.394Z,99818.83
2019-01-26T05:11:10.729Z,99809.13
2019-01-26T05:13:39.996Z,99807.17
2019-01-26T05:16:09.341Z,99807.80
2019-01-26T05:18:38.822Z,99807.19
2019-01-26T05:21:08.276Z,99804.31
2019-01-26T05:23:37.519Z,99796.94
2019-01-26T05:26:07.013Z,99792.02
2019-01-26T05:28:36.401Z,99794.28
2019-01-26T05:31:05.862Z,99793.86
2019-01-26T05:33:35.241Z,99793.05
2019-01-26T05:36:04.684Z,99798.27
2019-01-26T05:38:34.024Z,99793.16
2019-01-26T05:41:03.350Z,99798.39
2019-01-26T05:43:32.813Z,99792.12
2019-01-26T05:46:02.212Z,99797.16
2019-01-26T05:48:31.609Z,99798.35
2019-01-26T05:51:00.875Z,99789.58
2019-01-26T05:53:30.323Z,99794.38
2019-01-26T05:55:59.629Z,99797.13
2019-01-26T05:58:29.045Z,99802.97
2019-01-26T06:00:58.514Z,99792.52
2019-01-26T06:03:27.890Z,99778.08
2019-01-26T06:05:57.418Z,99787.61
2019-01-26T06:08:26.755Z,99786.66
2019-01-26T06:10:56.141Z,99788.45
2019-01-26T06:13:25.476Z,99789.55
2019-01-26T06:15:54.859Z,99785.66
2019-01-26T06:18:24.313Z,99781.45
2019-01-26T06:20:53.637Z,99780.73
2019-01-26T06:23:23.030Z,99779.92
2019-01-26T06:25:52.437Z,99777.23
2019-01-26T06:28:21.734Z,99778.75
2019-01-26T06:30:51.156Z,99772.73
2019-01-26T06:33:20.572Z,99771.38
2019-01-26T06:35:50.016Z,99769.02
2019-01-26T06:38:21.412Z,99758.72
2019-01-26T06:40:50.913Z,99758.59
2019-01-26T06:43:20.341Z,99763.06
2019-01-26T06:45:49.747Z,99764.63
2019-01-26T06:48:19.015Z,99761.26
2019-01-26T06:50:48.392Z,99756.91
2019-01-26T06:53:17.835Z,99763.92
2019-01-26T06:55:47.085Z,99765.91
2019-01-26T06:58:16.480Z,99769.08
2019-01-26T07:00:45.844Z,99769.02
2019-01-26T07:03:15.302Z,99767.75
2019-01-26T07:05:58.517Z,99769.91
2019-01-26T07:08:28.095Z,99767.66
2019-01-26T07:10:57.456Z,99761.45
2019-01-26T07:13:26.935Z,99765.44
2019-01-26T07:15:58.641Z,99769.53
2019-01-26T07:18:29.143Z,99766.14
2019-01-26T07:20:58.392Z,99762.27
2019-01-26T07:23:27.843Z,99771.47
2019-01-26T07:25:57.118Z,99772.70
2019-01-26T07:28:26.510Z,99777.39
2019-01-26T07:30:55.884Z,99772.61
2019-01-26T07:33:25.197Z,99776.56
2019-01-26T07:35:54.538Z,99773.08
2019-01-26T07:38:23.824Z,99780.47
2019-01-26T07:40:53.245Z,99775.55
2019-01-26T07:43:22.554Z,99778.75
2019-01-26T07:45:51.919Z,99787.81
2019-01-26T07:48:21.328Z,99780.56
2019-01-26T07:50:50.761Z,99784.46
2019-01-26T07:53:20.132Z,99771.48
2019-01-26T07:55:49.533Z,99774.09
2019-01-26T07:58:19.093Z,99771.84
2019-01-26T08:00:48.394Z,99778.22
2019-01-26T08:03:17.805Z,99777.80
2019-01-26T08:05:47.253Z,99782.17
2019-01-26T08:08:16.697Z,99782.81
2019-01-26T08:10:46.073Z,99790.26
2019-01-26T08:13:15.480Z,99783.92
2019-01-26T08:15:44.780Z,99788.96
2019-01-26T08:18:14.203Z,99788.73
2019-01-26T08:20:43.458Z,99786.39
2019-01-26T08:23:12.956Z,99787.91
2019-01-26T08:25:42.336Z,99793.97
2019-01-26T08:28:11.646Z,99785.47
2019-01-26T08:30:40.977Z,99790.20
2019-01-26T08:33:10.298Z,99786.86
2019-01-26T08:35:39.619Z,99792.32
2019-01-26T08:38:08.893Z,99785.63
2019-01-26T08:40:38.399Z,99802.43
2019-01-26T08:43:07.953Z,99792.19
2019-01-26T08:45:37.252Z,99774.79
2019-01-26T08:48:07.170Z,99786.86
2019-01-26T08:50:36.496Z,99794.85
2019-01-26T08:53:06.003Z,99794.76
2019-01-26T08:55:35.317Z,99789.91
2019-01-26T08:58:05.073Z,99785.91
2019-01-26T09:00:34.503Z,99787.55
2019-01-26T09:03:22.798Z,99787.55
2019-01-26T09:06:11.037Z,99780.89
2019-01-26T09:08:40.559Z,99786.16
2019-01-26T09:11:10.008Z,99786.67
2019-01-26T09:13:39.343Z,99782.68
2019-01-26T09:16:08.760Z,99787.50
2019-01-26T09:18:38.876Z,99792.70
2019-01-26T09:21:08.557Z,99793.52
2019-01-26T09:23:37.970Z,99791.30
2019-01-26T09:26:07.279Z,99791.45
2019-01-26T09:28:36.739Z,99795.36
2019-01-26T09:31:06.328Z,99794.76
2019-01-26T09:33:35.703Z,99792.88
2019-01-26T09:36:06.158Z,99797.28
2019-01-26T09:38:35.524Z,99802.14
2019-01-26T09:41:05.029Z,99796.19
2019-01-26T09:43:34.367Z,99793.94
2019-01-26T09:46:03.780Z,99803.34
2019-01-26T09:48:33.107Z,99802.94
2019-01-26T09:51:02.621Z,99801.47
2019-01-26T09:53:31.985Z,99801.70
2019-01-26T09:56:01.295Z,99803.86
2019-01-26T09:58:30.689Z,99789.30
2019-01-26T10:01:00.032Z,99805.47
2019-01-26T10:03:29.379Z,99806.33
2019-01-26T10:05:58.788Z,99804.64
2019-01-26T10:08:28.367Z,99803.85
2019-01-26T10:10:57.765Z,99798.52
2019-01-26T10:13:27.210Z,99805.59
2019-01-26T10:15:56.668Z,99803.41
2019-01-26T10:18:26.115Z,99794.91
2019-01-26T10:20:55.715Z,99801.00
2019-01-26T10:23:25.085Z,99799.86
2019-01-26T10:25:54.449Z,99792.05
2019-01-26T10:28:24.083Z,99790.81
2019-01-26T10:30:56.771Z,99803.95
2019-01-26T10:33:26.232Z,99789.52
2019-01-26T10:36:14.635Z,99791.83
2019-01-26T10:38:49.008Z,99788.10
2019-01-26T10:41:28.008Z,99792.00
2019-01-26T10:43:57.485Z,99785.25
2019-01-26T10:46:26.890Z,99778.78
2019-01-26T10:49:00.643Z,99778.37
2019-01-26T10:51:27.390Z,99776.34
2019-01-26T10:53:56.778Z,99773.23
2019-01-26T10:56:26.237Z,99769.27
2019-01-26T10:58:55.748Z,99774.09
2019-01-26T11:01:25.199Z,99767.44
2019-01-26T11:03:54.643Z,99761.09
2019-01-26T11:06:24.036Z,99766.92
2019-01-26T11:08:53.437Z,99765.50
2019-01-26T11:11:22.798Z,99757.20
2019-01-26T11:13:52.176Z,99760.04
2019-01-26T11:16:21.520Z,99753.58
2019-01-26T11:18:51.020Z,99761.05
2019-01-26T11:21:20.576Z,99756.55
2019-01-26T11:23:50.025Z,99753.55
2019-01-26T11:26:19.434Z,99749.63
2019-01-26T11:28:48.831Z,99757.33
2019-01-26T11:31:18.602Z,99755.17
2019-01-26T11:33:47.968Z,99750.13
2019-01-26T11:36:17.418Z,99753.94
2019-01-26T11:38:46.798Z,99742.83
2019-01-26T11:41:16.324Z,99740.90
2019-01-26T11:43:46.562Z,99737.68
2019-01-26T11:46:35.017Z,99736.95
2019-01-26T11:49:04.465Z,99733.19
2019-01-26T11:51:52.907Z,99730.59
2019-01-26T11:54:22.332Z,99728.41
2019-01-26T11:56:57.304Z,99724.41
2019-01-26T11:59:26.667Z,99718.12
2019-01-26T12:02:22.303Z,99715.88
2019-01-26T12:05:08.541Z,99715.68
2019-01-26T12:07:38.224Z,99710.73
2019-01-26T12:10:10.372Z,99715.27
2019-01-26T12:12:39.782Z,99709.89
2019-01-26T12:15:12.130Z,99705.89
2019-01-26T12:17:41.431Z,99708.31
2019-01-26T12:20:13.199Z,99707.83
2019-01-26T12:22:42.618Z,99702.36
2019-01-26T12:25:12.435Z,99704.30
2019-01-26T12:27:41.910Z,99700.77
2019-01-26T12:30:12.839Z,99685.41
2019-01-26T12:32:42.418Z,99678.92
2019-01-26T12:35:13.133Z,99688.91
2019-01-26T12:37:42.558Z,99682.03
2019-01-26T12:40:12.427Z,99684.69
2019-01-26T12:42:41.899Z,99677.84
2019-01-26T12:45:14.722Z,99675.55
2019-01-26T12:47:44.099Z,99679.67
2019-01-26T12:50:14.004Z,99680.71
2019-01-26T12:52:43.341Z,99674.95
2019-01-26T12:55:14.054Z,99669.76
2019-01-26T12:57:43.528Z,99677.33
2019-01-26T13:00:16.113Z,99666.05
2019-01-26T13:02:45.532Z,99666.74
2019-01-26T13:05:14.924Z,99663.03
2019-01-26T13:07:44.322Z,99663.75
2019-01-26T13:10:17.851Z,99657.55
2019-01-26T13:12:47.495Z,99651.67
2019-01-26T13:15:16.941Z,99644.20
2019-01-26T13:17:46.542Z,99643.55
2019-01-26T13:20:16.649Z,99645.72
2019-01-26T13:22:46.167Z,99641.90
2019-01-26T13:25:16.708Z,99637.63
2019-01-26T13:27:46.221Z,99629.72
2019-01-26T13:30:19.915Z,99632.58
2019-01-26T13:32:49.450Z,99628.14
2019-01-26T13:35:19.251Z,99627.52
2019-01-26T13:37:48.686Z,99622.75
2019-01-26T13:40:19.298Z,99620.67
2019-01-26T13:42:48.594Z,99617.17
2019-01-26T13:45:18.104Z,99624.02
2019-01-26T13:47:47.608Z,99621.66
2019-01-26T13:50:17.302Z,99613.95
2019-01-26T13:52:46.773Z,99610.42
2019-01-26T13:55:17.643Z,99614.84
2019-01-26T13:57:47.198Z,99608.86
2019-01-26T14:00:20.187Z,99607.94
2019-01-26T14:02:49.922Z,99605.20
2019-01-26T14:05:19.474Z,99593.63
2019-01-26T14:07:49.095Z,99592.45
2019-01-26T14:10:18.744Z,99595.29
2019-01-26T14:12:48.363Z,99590.61
2019-01-26T14:15:18.157Z,99581.31
2019-01-26T14:17:47.921Z,99580.55
2019-01-26T14:20:19.290Z,99570.49
2019-01-26T14:22:48.724Z,99569.78
2019-01-26T14:25:18.547Z,99560.82
2019-01-26T14:27:47.904Z,99562.56
2019-01-26T14:30:20.225Z,99549.44
2019-01-26T14:32:52.664Z,99554.73
2019-01-26T14:35:21.181Z,99546.61
2019-01-26T14:37:50.645Z,99547.80
2019-01-26T14:40:20.359Z,99541.88
2019-01-26T14:42:54.320Z,99544.54
2019-01-26T14:45:21.419Z,99541.20
2019-01-26T14:47:51.112Z,99540.70
2019-01-26T14:50:20.979Z,99529.13
2019-01-26T14:52:50.709Z,99532.55
2019-01-26T14:55:22.051Z,99533.56
2019-01-26T14:57:51.768Z,99523.06
2019-01-26T15:00:26.557Z,99524.23
2019-01-26T15:02:56.155Z,99522.52
2019-01-26T15:05:25.846Z,99523.48
2019-01-26T15:07:57.113Z,99517.17
2019-01-26T15:10:26.981Z,99518.70
2019-01-26T15:12:56.670Z,99518.55
2019-01-26T15:15:26.713Z,99511.30
2019-01-26T15:17:56.300Z,99506.40
2019-01-26T15:20:28.626Z,99504.13
2019-01-26T15:22:58.287Z,99499.31
2019-01-26T15:25:27.917Z,99489.32
2019-01-26T15:27:57.474Z,99496.88
2019-01-26T15:30:29.900Z,99488.80
2019-01-26T15:32:59.647Z,99487.91
2019-01-26T15:35:29.409Z,99486.72
2019-01-26T15:37:59.114Z,99478.52
2019-01-26T15:40:28.602Z,99480.76
2019-01-26T15:42:58.420Z,99467.28
2019-01-26T15:45:31.094Z,99466.51
2019-01-26T15:48:00.706Z,99466.51
2019-01-26T15:50:30.346Z,99470.97
2019-01-26T15:52:59.912Z,99466.02
2019-01-26T15:55:29.730Z,99457.41
2019-01-26T15:57:59.436Z,99462.39
2019-01-26T16:00:31.078Z,99455.45
2019-01-26T16:03:00.723Z,99451.14
2019-01-26T16:05:30.367Z,99449.73
2019-01-26T16:08:00.214Z,99450.98
2019-01-26T16:10:29.936Z,99441.08
2019-01-26T16:12:59.449Z,99437.91
2019-01-26T16:15:30.888Z,99436.17
2019-01-26T16:18:00.855Z,99436.92
2019-01-26T16:20:30.743Z,99425.88
2019-01-26T16:23:00.431Z,99421.95
2019-01-26T16:25:30.511Z,99426.37
2019-01-26T16:28:00.110Z,99426.11
2019-01-26T16:30:31.634Z,99412.65
2019-01-26T16:33:01.302Z,99406.66
2019-01-26T16:35:32.272Z,99407.39
2019-01-26T16:38:01.860Z,99401.28
2019-01-26T16:40:33.332Z,99395.17
2019-01-26T16:43:02.808Z,99401.28
2019-01-26T16:45:34.480Z,99392.59
2019-01-26T16:48:06.666Z,99389.11
2019-01-26T16:50:36.329Z,99380.81
2019-01-26T16:53:06.313Z,99381.05
2019-01-26T16:55:35.933Z,99377.56
2019-01-26T16:58:05.950Z,99368.02
2019-01-26T17:00:46.460Z,99361.99
2019-01-26T17:03:16.096Z,99350.72
2019-01-26T17:05:46.004Z,99346.02
2019-01-26T17:08:15.742Z,99346.66
2019-01-26T17:10:45.336Z,99345.63
2019-01-26T17:13:15.133Z,99337.22
2019-01-26T17:15:44.713Z,99338.86
2019-01-26T17:18:14.629Z,99332.20
2019-01-26T17:20:45.912Z,99330.02
2019-01-26T17:23:15.723Z,99324.07
2019-01-26T17:25:45.450Z,99320.63
2019-01-26T17:28:15.269Z,99311.81
2019-01-26T17:30:45.080Z,99310.48
2019-01-26T17:33:14.833Z,99299.77
2019-01-26T17:35:44.631Z,99303.80
2019-01-26T17:38:14.473Z,99297.77
2019-01-26T17:40:44.151Z,99288.88
2019-01-26T17:43:13.975Z,99288.19
2019-01-26T17:45:44.590Z,99270.38
2019-01-26T17:48:14.358Z,99274.09
2019-01-26T17:50:44.090Z,99269.36
2019-01-26T17:53:13.700Z,99263.06
2019-01-26T17:55:43.451Z,99263.30
2019-01-26T17:58:13.234Z,99268.54
2019-01-26T18:01:04.884Z,99253.11
2019-01-26T18:03:34.613Z,99256.72
2019-01-26T18:06:04.455Z,99256.20
2019-01-26T18:08:35.348Z,99244.59
2019-01-26T18:11:05.149Z,99239.42
2019-01-26T18:13:34.866Z,99237.58
2019-01-26T18:16:04.838Z,99230.84
2019-01-26T18:18:34.579Z,99233.34
2019-01-26T18:21:04.473Z,99225.60
2019-01-26T18:23:34.981Z,99210.22
2019-01-26T18:26:05.420Z,99208.30
2019-01-26T18:28:35.147Z,99209.20
2019-01-26T18:31:05.800Z,99200.47
2019-01-26T18:33:35.522Z,99202.03
2019-01-26T18:36:05.634Z,99196.02
2019-01-26T18:38:35.302Z,99191.89
2019-01-26T18:41:05.104Z,99186.27
2019-01-26T18:43:34.854Z,99183.02
2019-01-26T18:46:04.789Z,99183.61
2019-01-26T18:48:34.909Z,99171.56
2019-01-26T18:51:04.681Z,99170.16
2019-01-26T18:53:34.340Z,99169.55
2019-01-26T18:56:04.015Z,99169.69
2019-01-26T18:58:33.962Z,99163.34
2019-01-26T19:01:04.183Z,99149.73
2019-01-26T19:04:09.154Z,99148.02
2019-01-26T19:06:39.016Z,99144.27
2019-01-26T19:09:11.682Z,99121.58
2019-01-26T19:11:41.312Z,99113.86
2019-01-26T19:14:11.073Z,99119.05
2019-01-26T19:16:41.364Z,99122.84
2019-01-26T19:19:11.142Z,99115.59
2019-01-26T19:21:40.923Z,99116.66
2019-01-26T19:24:10.804Z,99112.26
2019-01-26T19:26:40.590Z,99088.78
2019-01-26T19:29:10.561Z,99088.17
2019-01-26T19:31:40.364Z,99088.09
2019-01-26T19:34:10.102Z,99080.73
2019-01-26T19:36:39.930Z,99078.20
2019-01-26T19:39:09.784Z,99076.95
2019-01-26T19:41:39.454Z,99075.10
2019-01-26T19:44:09.442Z,99074.80
2019-01-26T19:46:39.036Z,99069.78
2019-01-26T19:49:08.882Z,99072.88
2019-01-26T19:51:38.548Z,99071.11
2019-01-26T19:54:08.611Z,99068.38
2019-01-26T19:56:38.383Z,99058.55
2019-01-26T19:59:08.210Z,99060.30
2019-01-26T20:01:37.991Z,99054.97
2019-01-26T20:04:08.123Z,99048.69
2019-01-26T20:06:38.115Z,99044.20
2019-01-26T20:09:09.956Z,99042.45
2019-01-26T20:11:40.690Z,99035.94
2019-01-26T20:14:13.490Z,99030.00
2019-01-26T20:16:43.196Z,99028.84
2019-01-26T20:19:13.033Z,99022.77
2019-01-26T20:21:42.895Z,99027.41
2019-01-26T20:24:12.857Z,99016.05
2019-01-26T20:26:42.656Z,99008.20
2019-01-26T20:29:12.379Z,99006.67
2019-01-26T20:31:42.204Z,98995.96
2019-01-26T20:34:12.073Z,98995.08
2019-01-26T20:36:41.781Z,98981.27
2019-01-26T20:39:11.602Z,98967.14
2019-01-26T20:41:41.416Z,98973.22
2019-01-26T20:44:11.191Z,98971.06
2019-01-26T20:46:41.056Z,98957.37
2019-01-26T20:49:10.789Z,98957.77
2019-01-26T20:51:40.701Z,98951.38
2019-01-26T20:54:10.536Z,98955.80
2019-01-26T20:56:40.289Z,98938.96
2019-01-26T20:59:10.242Z,98933.95
2019-01-26T21:01:40.226Z,98927.37
2019-01-26T21:04:09.934Z,98913.41
2019-01-26T21:06:39.596Z,98921.09
2019-01-26T21:09:09.981Z,98913.56
2019-01-26T21:11:39.836Z,98908.48
2019-01-26T21:14:09.810Z,98901.02
2019-01-26T21:16:39.660Z,98890.50
2019-01-26T21:19:09.275Z,98879.16
2019-01-26T21:21:38.926Z,98883.78
2019-01-26T21:24:08.949Z,98875.62
2019-01-26T21:26:38.651Z,98877.77
2019-01-26T21:29:08.477Z,98874.66
2019-01-26T21:31:38.175Z,98864.67
2019-01-26T21:34:07.835Z,98859.53
2019-01-26T21:36:37.502Z,98861.62
2019-01-26T21:39:09.120Z,98858.38
2019-01-26T21:41:38.790Z,98852.94
2019-01-26T21:44:08.320Z,98849.80
2019-01-26T21:46:37.877Z,98852.25
2019-01-26T21:49:07.413Z,98848.53
2019-01-26T21:51:39.107Z,98848.47
2019-01-26T21:54:08.353Z,98836.35
2019-01-26T21:56:37.834Z,98829.85
2019-01-26T21:59:07.311Z,98829.27
2019-01-26T22:01:36.981Z,98819.84
2019-01-26T22:04:06.373Z,98819.33
2019-01-26T22:06:36.047Z,98815.58
2019-01-26T22:09:09.174Z,98814.08
2019-01-26T22:11:38.672Z,98813.20
2019-01-26T22:14:08.137Z,98803.20
2019-01-26T22:16:37.678Z,98801.08
2019-01-26T22:19:07.182Z,98792.80
2019-01-26T22:21:36.700Z,98790.90
2019-01-26T22:24:06.132Z,98786.66
2019-01-26T22:26:35.816Z,98782.28
2019-01-26T22:29:05.325Z,98777.30
2019-01-26T22:31:34.716Z,98765.63
2019-01-26T22:34:04.097Z,98767.72
2019-01-26T22:36:33.901Z,98760.02
2019-01-26T22:39:03.953Z,98755.15
2019-01-26T22:41:33.372Z,98745.57
2019-01-26T22:44:02.617Z,98748.29
2019-01-26T22:46:32.016Z,98743.73
2019-01-26T22:49:01.316Z,98738.68
2019-01-26T22:51:30.696Z,98725.63
2019-01-26T22:54:00.031Z,98721.19
2019-01-26T22:56:29.478Z,98716.95
2019-01-26T22:58:58.958Z,98711.27
2019-01-26T23:01:31.139Z,98702.16
2019-01-26T23:04:40.396Z,98698.92
2019-01-26T23:07:37.734Z,98695.51
2019-01-26T23:10:48.205Z,98688.50
2019-01-26T23:13:30.605Z,98676.78
2019-01-26T23:16:51.577Z,98668.45
2019-01-26T23:19:59.716Z,98665.28
2019-01-26T23:23:03.017Z,98653.77
2019-01-26T23:26:22.103Z,98648.12
2019-01-26T23:29:27.435Z,98641.39
2019-01-26T23:31:56.834Z,98632.30
2019-01-26T23:34:26.209Z,98628.56
2019-01-26T23:36:55.624Z,98624.12
2019-01-26T23:39:25.117Z,98616.30
2019-01-26T23:41:54.557Z,98608.63
2019-01-26T23:44:24.018Z,98592.38
2019-01-26T23:46:53.366Z,98600.70
2019-01-26T23:49:22.745Z,98588.17
2019-01-26T23:51:52.037Z,98583.68
2019-01-26T23:54:21.473Z,98576.92
2019-01-26T23:56:50.797Z,98574.73
2019-01-26T23:59:20.435Z,98563.34
